createdAt,value
2023-11-01T00:00:03.120Z,980.9106
2023-11-01T00:01:01.934Z,980.8605
2023-11-01T00:02:01.408Z,980.781
2023-11-01T00:03:03.658Z,980.7524
2023-11-01T00:04:02.396Z,980.7656
2023-11-01T00:05:03.451Z,980.7237
2023-11-01T00:06:03.980Z,980.7369
2023-11-01T00:07:01.658Z,980.973
2023-11-01T00:08:03.716Z,980.7656
2023-11-01T00:09:03.212Z,980.9228
2023-11-01T00:10:03.711Z,980.9156
2023-11-01T00:11:01.412Z,980.7877
2023-11-01T00:12:01.927Z,980.7524
2023-11-01T00:13:03.008Z,980.7524
2023-11-01T00:14:03.456Z,980.8384
2023-11-01T00:15:02.276Z,980.7959
2023-11-01T00:16:03.331Z,980.8759
2023-11-01T00:17:02.156Z,980.882
2023-11-01T00:18:01.800Z,980.6525
2023-11-01T00:19:03.738Z,980.8246
2023-11-01T00:20:03.231Z,980.8251
2023-11-01T00:21:03.581Z,980.7253
2023-11-01T00:22:01.413Z,980.69
2023-11-01T00:23:03.503Z,980.7474
2023-11-01T00:25:01.890Z,980.8841
2023-11-01T00:26:02.268Z,981.1002
2023-11-01T00:27:01.707Z,980.7644
2023-11-01T00:28:02.185Z,980.8218
2023-11-01T00:29:01.677Z,980.7291
2023-11-01T00:30:03.707Z,980.8504
2023-11-01T00:31:03.224Z,980.8504
2023-11-01T00:32:03.579Z,980.9237
2023-11-01T00:33:01.548Z,980.9524
2023-11-01T00:34:01.969Z,981.0445
2023-11-01T00:35:03.011Z,980.9166
2023-11-01T00:36:03.462Z,980.9872
2023-11-01T00:37:02.281Z,980.8504
2023-11-01T00:38:03.467Z,981.1002
2023-11-01T00:39:02.260Z,980.8488
2023-11-01T00:40:03.379Z,980.8334
2023-11-01T00:41:02.147Z,980.8626
2023-11-01T00:42:01.663Z,980.9834
2023-11-01T00:43:02.146Z,980.7612
2023-11-01T00:44:02.196Z,980.8246
2023-11-01T00:45:03.615Z,980.754
2023-11-01T00:46:01.427Z,980.8246
2023-11-01T00:47:01.975Z,980.8318
2023-11-01T00:48:01.484Z,980.8533
2023-11-01T00:49:03.585Z,980.9465
2023-11-01T00:50:02.306Z,980.9311
2023-11-01T00:51:01.711Z,980.973
2023-11-01T00:52:03.827Z,980.887
2023-11-01T00:53:01.700Z,981.0949
2023-11-01T00:54:03.746Z,980.8655
2023-11-01T00:55:03.252Z,981.0089
2023-11-01T00:56:02.032Z,980.9648
2023-11-01T00:57:03.113Z,980.9934
2023-11-01T00:58:01.914Z,981.1082
2023-11-01T00:59:01.428Z,980.9361
2023-11-01T01:00:03.496Z,981.0795
2023-11-01T01:01:04.087Z,980.9493
2023-11-01T01:02:03.380Z,980.9422
2023-11-01T01:03:02.249Z,980.9913
2023-11-01T01:04:01.943Z,981.1833
2023-11-01T01:05:02.157Z,981.0399
2023-11-01T01:06:01.674Z,981.0399
2023-11-01T01:07:02.062Z,980.9825
2023-11-01T01:08:01.551Z,981.0686
2023-11-01T01:09:02.033Z,981.0399
2023-11-01T01:10:03.151Z,981.1833
2023-11-01T01:11:03.598Z,980.9825
2023-11-01T01:12:01.438Z,981.1177
2023-11-01T01:13:03.610Z,981.067
2023-11-01T01:14:03.009Z,981.0316
2023-11-01T01:15:01.801Z,980.9169
2023-11-01T01:16:02.381Z,980.9456
2023-11-01T01:17:03.360Z,980.9743
2023-11-01T01:18:03.945Z,980.8744
2023-11-01T01:19:03.396Z,980.8661
2023-11-01T01:20:03.738Z,981.0521
2023-11-01T01:21:03.238Z,980.9373
2023-11-01T01:22:02.052Z,980.9086
2023-11-01T01:23:02.086Z,980.8088
2023-11-01T01:24:01.922Z,980.9086
2023-11-01T01:25:01.447Z,980.7359
2023-11-01T01:26:03.519Z,980.7646
2023-11-01T01:28:01.810Z,980.7646
2023-11-01T01:29:03.881Z,980.8071
2023-11-01T01:30:03.276Z,980.8579
2023-11-01T01:31:02.081Z,980.7784
2023-11-01T01:32:03.278Z,980.9285
2023-11-01T01:33:02.105Z,980.8292
2023-11-01T01:34:01.460Z,980.8645
2023-11-01T01:35:03.643Z,980.8491
2023-11-01T01:36:03.011Z,980.9352
2023-11-01T01:37:03.517Z,980.7917
2023-11-01T01:38:02.292Z,980.8204
2023-11-01T01:39:01.721Z,980.9131
2023-11-01T01:40:02.201Z,980.8557
2023-11-01T01:41:03.277Z,980.7983
2023-11-01T01:42:02.050Z,980.9545
2023-11-01T01:43:03.192Z,980.9258
2023-11-01T01:44:03.682Z,980.9479
2023-11-01T01:45:01.578Z,980.9617
2023-11-01T01:46:03.510Z,980.9043
2023-11-01T01:47:03.014Z,980.8397
2023-11-01T01:48:03.431Z,980.9192
2023-11-01T01:49:02.239Z,980.7481
2023-11-01T01:50:03.399Z,980.9766
2023-11-01T01:51:02.204Z,980.763
2023-11-01T01:52:03.269Z,980.7696
2023-11-01T01:53:03.761Z,980.9285
2023-11-01T01:54:03.131Z,980.7056
2023-11-01T01:55:01.948Z,980.657
2023-11-01T01:56:01.378Z,980.7917
2023-11-01T01:57:03.492Z,980.5489
2023-11-01T01:58:02.292Z,980.8794
2023-11-01T01:59:01.822Z,980.7939
2023-11-01T02:00:02.230Z,980.7514
2023-11-01T02:01:01.727Z,980.8512
2023-11-01T02:02:03.751Z,980.9086
2023-11-01T02:03:02.343Z,980.8661
2023-11-01T02:04:01.978Z,980.8088
2023-11-01T02:05:03.270Z,980.7734
2023-11-01T02:06:01.942Z,980.7447
2023-11-01T02:07:01.466Z,980.7078
2023-11-01T02:08:01.823Z,980.6499
2023-11-01T02:09:02.932Z,980.9352
2023-11-01T02:10:01.718Z,980.7497
2023-11-01T02:11:02.304Z,980.8998
2023-11-01T02:12:01.828Z,980.8204
2023-11-01T02:13:03.781Z,980.6786
2023-11-01T02:14:01.595Z,980.6013
2023-11-01T02:15:02.096Z,980.7365
2023-11-01T02:16:03.169Z,980.7078
2023-11-01T02:17:03.622Z,980.7078
2023-11-01T02:18:01.511Z,980.7939
2023-11-01T02:19:01.959Z,980.7514
2023-11-01T02:20:01.345Z,980.6791
2023-11-01T02:21:01.861Z,980.6499
2023-11-01T02:22:02.436Z,980.5997
2023-11-01T02:23:01.827Z,980.763
2023-11-01T02:24:02.236Z,980.6548
2023-11-01T02:25:01.754Z,980.7343
2023-11-01T02:26:03.750Z,980.7481
2023-11-01T02:27:01.592Z,980.8557
2023-11-01T02:28:02.124Z,980.6548
2023-11-01T02:29:01.509Z,980.7056
2023-11-01T02:30:01.985Z,980.8425
2023-11-01T02:31:01.508Z,980.9352
2023-11-01T02:32:01.951Z,980.7056
2023-11-01T02:33:01.552Z,980.7409
2023-11-01T02:34:01.990Z,980.6676
2023-11-01T02:35:01.355Z,980.6963
2023-11-01T02:36:01.837Z,980.8397
2023-11-01T02:37:02.317Z,980.6814
2023-11-01T02:38:03.539Z,980.6527
2023-11-01T02:39:02.194Z,980.6527
2023-11-01T02:40:01.632Z,980.7675
2023-11-01T02:41:03.883Z,980.6963
2023-11-01T02:42:01.596Z,980.8822
2023-11-01T02:43:02.077Z,980.7321
2023-11-01T02:44:01.480Z,980.8469
2023-11-01T02:45:03.665Z,980.6814
2023-11-01T02:46:01.420Z,980.7675
2023-11-01T02:47:01.836Z,980.7388
2023-11-01T02:48:03.062Z,980.7608
2023-11-01T02:49:01.762Z,980.7454
2023-11-01T02:50:04.008Z,980.6527
2023-11-01T02:51:01.720Z,980.7454
2023-11-01T02:52:02.195Z,980.7233
2023-11-01T02:53:03.399Z,980.6725
2023-11-01T02:54:02.092Z,980.6438
2023-11-01T02:55:03.195Z,980.7586
2023-11-01T02:56:03.671Z,980.4937
2023-11-01T02:57:01.484Z,980.529
2023-11-01T02:58:01.963Z,980.6151
2023-11-01T02:59:03.082Z,980.7586
2023-11-01T03:00:01.848Z,980.7012
2023-11-01T03:01:02.323Z,980.5577
2023-11-01T03:02:01.765Z,980.7586
2023-11-01T03:03:02.330Z,980.6438
2023-11-01T03:04:01.754Z,980.6792
2023-11-01T03:05:03.781Z,980.6643
2023-11-01T03:06:01.619Z,980.6069
2023-11-01T03:07:02.086Z,980.6069
2023-11-01T03:08:01.529Z,980.529
2023-11-01T03:09:02.088Z,980.6151
2023-11-01T03:10:01.486Z,980.529
2023-11-01T03:11:02.014Z,980.5864
2023-11-01T03:12:01.369Z,980.6438
2023-11-01T03:13:01.848Z,980.6725
2023-11-01T03:14:01.373Z,980.6151
2023-11-01T03:15:01.767Z,980.6438
2023-11-01T03:16:03.938Z,980.5931
2023-11-01T03:17:01.731Z,980.6863
2023-11-01T03:18:02.285Z,980.6069
2023-11-01T03:19:01.645Z,980.7217
2023-11-01T03:20:03.680Z,980.6289
2023-11-01T03:21:03.207Z,980.7129
2023-11-01T03:22:03.655Z,980.799
2023-11-01T03:23:01.492Z,980.7835
2023-11-01T03:24:02.010Z,980.7129
2023-11-01T03:25:03.081Z,980.7835
2023-11-01T03:26:03.538Z,980.8189
2023-11-01T03:27:02.248Z,980.7907
2023-11-01T03:28:03.415Z,980.6466
2023-11-01T03:29:02.252Z,980.6533
2023-11-01T03:30:01.649Z,980.6533
2023-11-01T03:31:02.148Z,980.6317
2023-11-01T03:32:01.534Z,980.9321
2023-11-01T03:33:03.741Z,980.8614
2023-11-01T03:34:03.094Z,980.9393
2023-11-01T03:35:01.863Z,981.01
2023-11-01T03:36:01.379Z,980.809
2023-11-01T03:37:01.861Z,980.809
2023-11-01T03:38:01.275Z,981.01
2023-11-01T03:39:03.425Z,980.7736
2023-11-01T03:40:02.227Z,980.9393
2023-11-01T03:41:01.621Z,980.8614
2023-11-01T03:42:02.099Z,980.7835
2023-11-01T03:43:03.184Z,980.7835
2023-11-01T03:44:02.017Z,980.7416
2023-11-01T03:45:01.565Z,980.7349
2023-11-01T03:46:03.613Z,980.7416
2023-11-01T03:47:03.081Z,980.8211
2023-11-01T03:48:03.602Z,980.6924
2023-11-01T03:50:01.844Z,980.6643
2023-11-01T03:51:03.923Z,980.5577
2023-11-01T03:52:01.776Z,980.7012
2023-11-01T03:53:03.784Z,980.7012
2023-11-01T03:54:01.626Z,980.7586
2023-11-01T03:55:03.789Z,980.7233
2023-11-01T03:56:01.507Z,980.6725
2023-11-01T03:57:03.606Z,980.7233
2023-11-01T03:58:03.068Z,980.7233
2023-11-01T03:59:01.917Z,980.8381
2023-11-01T04:00:01.335Z,980.8734
2023-11-01T04:01:03.510Z,980.688
2023-11-01T04:02:03.929Z,980.8822
2023-11-01T04:03:01.677Z,980.6527
2023-11-01T04:04:02.817Z,980.6747
2023-11-01T04:05:03.195Z,980.5748
2023-11-01T04:06:03.675Z,980.6747
2023-11-01T04:07:01.432Z,980.8044
2023-11-01T04:08:01.993Z,980.6035
2023-11-01T04:09:03.075Z,980.6102
2023-11-01T04:10:03.553Z,980.6676
2023-11-01T04:11:01.309Z,980.5114
2023-11-01T04:12:01.786Z,980.6262
2023-11-01T04:13:03.831Z,980.5908
2023-11-01T04:14:01.673Z,980.7056
2023-11-01T04:15:03.802Z,980.6703
2023-11-01T04:16:03.277Z,980.5621
2023-11-01T04:17:03.675Z,980.7056
2023-11-01T04:18:04.393Z,980.6703
2023-11-01T04:19:03.668Z,980.7056
2023-11-01T04:20:02.996Z,980.6195
2023-11-01T04:21:01.885Z,980.4849
2023-11-01T04:22:01.312Z,980.4777
2023-11-01T04:23:03.444Z,980.6217
2023-11-01T04:24:03.843Z,980.5643
2023-11-01T04:25:01.641Z,980.5152
2023-11-01T04:26:02.164Z,980.4005
2023-11-01T04:27:01.641Z,980.6013
2023-11-01T04:28:02.124Z,980.4088
2023-11-01T04:29:03.233Z,980.4661
2023-11-01T04:30:02.019Z,980.5235
2023-11-01T04:31:01.526Z,980.5544
2023-11-01T04:32:03.602Z,980.5058
2023-11-01T04:33:03.192Z,980.5345
2023-11-01T04:34:01.887Z,980.5345
2023-11-01T04:35:01.436Z,980.4634
2023-11-01T04:36:01.897Z,980.5213
2023-11-01T04:37:01.341Z,980.5715
2023-11-01T04:38:03.458Z,980.5229
2023-11-01T04:39:02.280Z,980.5819
2023-11-01T04:40:01.765Z,980.7099
2023-11-01T04:41:03.938Z,980.6531
2023-11-01T04:42:03.363Z,980.5952
2023-11-01T04:43:02.161Z,980.5819
2023-11-01T04:44:01.655Z,980.5974
2023-11-01T04:45:02.130Z,980.7121
2023-11-01T04:46:01.606Z,980.6922
2023-11-01T04:47:02.012Z,980.5858
2023-11-01T04:48:01.730Z,980.5511
2023-11-01T04:49:02.045Z,980.4513
2023-11-01T04:50:03.091Z,980.5373
2023-11-01T04:51:02.200Z,980.5952
2023-11-01T04:52:01.424Z,980.7754
2023-11-01T04:53:03.576Z,980.4821
2023-11-01T04:54:02.905Z,980.4821
2023-11-01T04:55:03.335Z,980.7048
2023-11-01T04:56:02.172Z,980.6977
2023-11-01T04:57:01.653Z,980.6343
2023-11-01T04:58:02.133Z,980.6343
2023-11-01T04:59:03.242Z,980.6343
2023-11-01T05:00:02.016Z,980.6343
2023-11-01T05:01:01.540Z,980.7418
2023-11-01T05:02:02.026Z,980.5918
2023-11-01T05:03:03.130Z,980.6778
2023-11-01T05:04:01.953Z,980.5637
2023-11-01T05:05:02.990Z,980.5637
2023-11-01T05:06:01.841Z,980.6784
2023-11-01T05:07:02.291Z,980.6497
2023-11-01T05:08:03.376Z,980.5637
2023-11-01T05:09:03.825Z,980.6784
2023-11-01T05:10:01.749Z,980.5637
2023-11-01T05:11:02.178Z,980.5924
2023-11-01T05:12:01.570Z,980.5637
2023-11-01T05:13:03.702Z,980.5637
2023-11-01T05:14:03.132Z,980.5637
2023-11-01T05:15:01.901Z,980.7357
2023-11-01T05:16:03.156Z,980.6784
2023-11-01T05:17:01.818Z,980.6784
2023-11-01T05:18:03.084Z,980.6205
2023-11-01T05:19:01.814Z,980.5637
2023-11-01T05:20:03.942Z,980.6343
2023-11-01T05:21:01.668Z,980.6696
2023-11-01T05:22:02.181Z,980.7048
2023-11-01T05:23:01.666Z,980.4469
2023-11-01T05:24:02.390Z,980.4821
2023-11-01T05:25:01.582Z,980.4028
2023-11-01T05:26:03.737Z,980.6525
2023-11-01T05:27:01.429Z,980.4513
2023-11-01T05:28:03.611Z,980.5924
2023-11-01T05:29:03.020Z,980.6498
2023-11-01T05:30:03.505Z,980.5351
2023-11-01T05:31:01.325Z,980.5775
2023-11-01T05:32:03.481Z,980.4187
2023-11-01T05:33:03.996Z,980.4408
2023-11-01T05:34:01.715Z,980.4761
2023-11-01T05:35:03.871Z,980.4612
2023-11-01T05:36:01.675Z,980.368
2023-11-01T05:37:03.830Z,980.4518
2023-11-01T05:38:01.669Z,980.4656
2023-11-01T05:39:03.833Z,980.5869
2023-11-01T05:40:01.668Z,980.4281
2023-11-01T05:41:02.187Z,980.4639
2023-11-01T05:42:03.267Z,980.4066
2023-11-01T05:43:03.720Z,980.4772
2023-11-01T05:44:03.120Z,980.4485
2023-11-01T05:45:01.918Z,980.3911
2023-11-01T05:46:03.159Z,980.5406
2023-11-01T05:47:03.485Z,980.4551
2023-11-01T05:48:04.039Z,980.4463
2023-11-01T05:49:01.824Z,980.497
2023-11-01T05:50:05.665Z,980.6383
2023-11-01T05:51:03.356Z,980.5522
2023-11-01T05:52:02.156Z,980.5235
2023-11-01T05:53:03.272Z,980.6956
2023-11-01T05:54:03.720Z,980.5522
2023-11-01T05:55:11.309Z,980.6669
2023-11-01T05:56:09.731Z,980.6383
2023-11-01T05:57:03.118Z,980.6956
2023-11-01T05:58:03.643Z,980.5809
2023-11-01T05:59:01.326Z,980.6383
2023-11-01T06:00:03.481Z,980.7817
2023-11-01T06:01:02.286Z,980.7596
2023-11-01T06:02:01.774Z,980.8021
2023-11-01T06:03:03.976Z,980.6013
2023-11-01T06:04:03.584Z,980.7514
2023-11-01T06:05:02.794Z,980.7365
2023-11-01T06:06:02.173Z,980.5925
2023-11-01T06:07:01.687Z,980.6786
2023-11-01T06:08:03.758Z,980.5555
2023-11-01T06:09:03.245Z,980.7056
2023-11-01T06:10:02.063Z,980.5975
2023-11-01T06:11:01.487Z,980.5114
2023-11-01T06:12:03.603Z,980.8044
2023-11-01T06:13:03.163Z,980.8044
2023-11-01T06:14:02.663Z,980.6527
2023-11-01T06:15:01.382Z,980.9176
2023-11-01T06:16:03.417Z,980.5379
2023-11-01T06:17:03.844Z,980.5953
2023-11-01T06:18:03.348Z,980.5759
2023-11-01T06:19:02.652Z,980.5114
2023-11-01T06:20:03.249Z,980.6609
2023-11-01T06:21:03.735Z,980.5185
2023-11-01T06:22:01.572Z,980.7056
2023-11-01T06:23:03.611Z,980.4253
2023-11-01T06:24:01.364Z,980.5908
2023-11-01T06:25:03.513Z,980.5621
2023-11-01T06:26:01.340Z,980.5975
2023-11-01T06:27:03.402Z,980.5908
2023-11-01T06:28:02.205Z,980.5688
2023-11-01T06:29:03.408Z,980.6046
2023-11-01T06:30:02.082Z,980.5748
2023-11-01T06:31:03.258Z,980.6896
2023-11-01T06:32:02.055Z,980.6262
2023-11-01T06:33:01.680Z,980.7481
2023-11-01T06:34:03.640Z,980.5908
2023-11-01T06:35:01.401Z,980.5759
2023-11-01T06:36:01.864Z,980.5688
2023-11-01T06:37:01.337Z,980.6195
2023-11-01T06:38:01.818Z,980.7409
2023-11-01T06:39:02.301Z,980.7409
2023-11-01T06:40:01.762Z,980.5975
2023-11-01T06:41:02.181Z,980.7056
2023-11-01T06:42:01.695Z,980.6195
2023-11-01T06:43:02.117Z,980.5908
2023-11-01T06:44:03.775Z,980.7343
2023-11-01T06:45:03.052Z,980.5334
2023-11-01T06:46:01.941Z,980.7409
2023-11-01T06:47:03.021Z,980.7056
2023-11-01T06:48:03.682Z,980.5908
2023-11-01T06:49:03.865Z,980.7056
2023-11-01T06:50:03.441Z,980.7409
2023-11-01T06:51:02.254Z,980.5621
2023-11-01T06:52:01.618Z,980.7056
2023-11-01T06:53:02.187Z,980.7056
2023-11-01T06:54:03.172Z,980.7056
2023-11-01T06:55:03.622Z,980.763
2023-11-01T06:56:01.470Z,980.7056
2023-11-01T06:57:01.979Z,980.7917
2023-11-01T06:58:03.025Z,980.8629
2023-11-01T06:59:03.505Z,980.7696
2023-11-01T07:00:03.986Z,980.7056
2023-11-01T07:01:01.878Z,980.635
2023-11-01T07:02:03.872Z,980.7343
2023-11-01T07:03:01.857Z,980.7343
2023-11-01T07:04:02.303Z,980.763
2023-11-01T07:05:01.627Z,980.7784
2023-11-01T07:06:02.129Z,980.7784
2023-11-01T07:07:01.501Z,980.7277
2023-11-01T07:08:03.682Z,980.763
2023-11-01T07:09:01.472Z,980.7917
2023-11-01T07:10:01.891Z,980.699
2023-11-01T07:11:03.032Z,980.5908
2023-11-01T07:12:01.834Z,980.5908
2023-11-01T07:13:02.308Z,980.7056
2023-11-01T07:14:01.743Z,980.6195
2023-11-01T07:15:02.266Z,980.7056
2023-11-01T07:16:03.355Z,980.6195
2023-11-01T07:17:02.261Z,980.7056
2023-11-01T07:18:03.386Z,980.4187
2023-11-01T07:19:02.083Z,980.6262
2023-11-01T07:20:01.518Z,980.5114
2023-11-01T07:21:03.636Z,980.6676
2023-11-01T07:22:01.478Z,980.5599
2023-11-01T07:23:03.549Z,980.5748
2023-11-01T07:24:01.993Z,980.4738
2023-11-01T07:25:03.398Z,980.5953
2023-11-01T07:26:02.236Z,980.5379
2023-11-01T07:27:01.715Z,980.5864
2023-11-01T07:28:03.918Z,980.4937
2023-11-01T07:29:01.637Z,980.5577
2023-11-01T07:30:02.125Z,980.529
2023-11-01T07:31:03.304Z,980.6069
2023-11-01T07:32:02.083Z,980.6069
2023-11-01T07:33:03.269Z,980.5119
2023-11-01T07:34:01.992Z,980.7129
2023-11-01T07:35:03.074Z,980.4965
2023-11-01T07:36:01.876Z,980.6246
2023-11-01T07:37:02.959Z,980.4236
2023-11-01T07:38:03.435Z,980.5097
2023-11-01T07:39:03.938Z,980.481
2023-11-01T07:40:03.417Z,980.7096
2023-11-01T07:41:02.205Z,980.5014
2023-11-01T07:42:03.286Z,980.6522
2023-11-01T07:43:02.120Z,980.4932
2023-11-01T07:44:03.307Z,980.4357
2023-11-01T07:45:03.674Z,980.4932
2023-11-01T07:46:01.583Z,980.5285
2023-11-01T07:47:03.646Z,980.4981
2023-11-01T07:48:03.298Z,980.6417
2023-11-01T07:49:03.527Z,980.4981
2023-11-01T07:50:02.327Z,980.4186
2023-11-01T07:51:01.763Z,980.4473
2023-11-01T07:52:02.247Z,980.5114
2023-11-01T07:53:03.432Z,980.4319
2023-11-01T07:54:02.207Z,980.4319
2023-11-01T07:55:01.613Z,980.4672
